createdAt,value
2017-12-29T00:00:39.967Z,16.10
2017-12-29T00:01:39.984Z,13.10
2017-12-29T00:02:39.989Z,12.50
2017-12-29T00:03:40.001Z,13.50
2017-12-29T00:04:40.012Z,13.60
2017-12-29T00:05:40.029Z,13.80
2017-12-29T00:06:40.035Z,16.30
2017-12-29T00:07:40.047Z,14.80
2017-12-29T00:08:40.057Z,16.00
2017-12-29T00:09:40.077Z,13.50
2017-12-29T00:10:40.099Z,11.10
2017-12-29T00:11:40.109Z,11.90
2017-12-29T00:12:40.101Z,12.40
2017-12-29T00:13:40.124Z,13.40
2017-12-29T00:14:40.133Z,13.40
2017-12-29T00:15:40.137Z,12.30
2017-12-29T00:16:40.145Z,13.30
2017-12-29T00:17:40.159Z,15.10
2017-12-29T00:18:40.168Z,12.00
2017-12-29T00:19:40.181Z,10.60
2017-12-29T00:20:40.193Z,11.90
2017-12-29T00:21:40.200Z,16.20
2017-12-29T00:22:40.210Z,15.60
2017-12-29T00:23:40.222Z,15.10
2017-12-29T00:24:40.235Z,17.40
2017-12-29T00:25:40.245Z,9.50
2017-12-29T00:26:40.260Z,13.00
2017-12-29T00:27:40.269Z,12.90
2017-12-29T00:28:40.277Z,11.00
2017-12-29T00:29:40.288Z,13.50
2017-12-29T00:30:40.304Z,14.40
2017-12-29T00:31:40.311Z,11.00
2017-12-29T00:32:40.323Z,16.70
2017-12-29T00:33:40.331Z,12.60
2017-12-29T00:34:40.343Z,18.70
2017-12-29T00:35:40.356Z,11.90
2017-12-29T00:36:40.366Z,13.90
2017-12-29T00:37:40.375Z,11.50
2017-12-29T00:38:40.387Z,13.70
2017-12-29T00:39:40.402Z,12.20
2017-12-29T00:40:40.413Z,14.40
2017-12-29T00:41:40.419Z,11.80
2017-12-29T00:42:40.435Z,14.40
2017-12-29T00:43:40.446Z,12.40
2017-12-29T00:44:40.453Z,14.10
2017-12-29T00:45:40.464Z,12.30
2017-12-29T00:46:40.478Z,12.80
2017-12-29T00:47:40.488Z,13.80
2017-12-29T00:48:40.499Z,13.80
2017-12-29T00:49:40.510Z,12.80
2017-12-29T00:50:40.520Z,12.10
2017-12-29T00:51:40.530Z,12.30
2017-12-29T00:52:40.542Z,15.40
2017-12-29T00:53:40.551Z,14.40
2017-12-29T00:54:40.565Z,15.90
2017-12-29T00:55:40.580Z,13.30
2017-12-29T00:56:40.608Z,13.20
2017-12-29T00:57:40.598Z,17.80
2017-12-29T00:58:40.608Z,12.20
2017-12-29T00:59:40.619Z,13.10
2017-12-29T01:00:40.630Z,12.80
2017-12-29T01:01:40.640Z,15.00
2017-12-29T01:02:40.656Z,14.60
2017-12-29T01:03:40.657Z,18.00
2017-12-29T01:04:40.667Z,12.80
2017-12-29T01:05:40.678Z,12.40
2017-12-29T01:06:40.688Z,12.10
2017-12-29T01:07:40.703Z,15.30
2017-12-29T01:08:40.712Z,15.40
2017-12-29T01:09:40.729Z,13.20
2017-12-29T01:10:40.734Z,15.10
2017-12-29T01:11:40.744Z,14.80
2017-12-29T01:12:40.757Z,12.30
2017-12-29T01:13:40.768Z,16.00
2017-12-29T01:14:40.778Z,14.30
2017-12-29T01:15:40.790Z,15.30
2017-12-29T01:16:40.800Z,15.40
2017-12-29T01:17:40.814Z,12.90
2017-12-29T01:18:40.824Z,13.40
2017-12-29T01:19:40.834Z,13.00
2017-12-29T01:20:40.848Z,14.50
2017-12-29T01:21:40.856Z,15.60
2017-12-29T01:22:40.872Z,15.80
2017-12-29T01:23:40.878Z,12.70
2017-12-29T01:24:40.891Z,13.90
2017-12-29T01:25:40.901Z,15.70
2017-12-29T01:26:40.911Z,16.20
2017-12-29T01:27:40.922Z,15.10
2017-12-29T01:28:40.937Z,16.30
2017-12-29T01:29:40.943Z,16.60
2017-12-29T01:30:40.955Z,14.70
2017-12-29T01:31:40.966Z,16.90
2017-12-29T01:32:40.981Z,14.40
2017-12-29T01:33:40.987Z,16.30
2017-12-29T01:34:41.000Z,16.20
2017-12-29T01:35:41.011Z,15.20
2017-12-29T01:36:41.021Z,16.70
2017-12-29T01:37:41.034Z,16.80
2017-12-29T01:38:41.046Z,15.10
2017-12-29T01:39:41.054Z,14.20
2017-12-29T01:40:41.066Z,14.20
2017-12-29T01:41:41.076Z,14.00
2017-12-29T01:42:41.085Z,15.90
2017-12-29T01:43:41.098Z,16.90
2017-12-29T01:44:41.109Z,15.80
2017-12-29T01:45:41.119Z,14.30
2017-12-29T01:46:41.130Z,15.20
2017-12-29T01:47:41.147Z,14.20
2017-12-29T01:48:41.158Z,15.60
2017-12-29T01:49:41.162Z,13.80
2017-12-29T01:50:41.179Z,14.50
2017-12-29T01:51:41.186Z,16.20
2017-12-29T01:52:41.196Z,17.40
2017-12-29T01:53:41.211Z,18.10
2017-12-29T01:54:41.219Z,17.20
2017-12-29T01:55:41.228Z,15.40
2017-12-29T01:56:41.240Z,14.50
2017-12-29T01:57:41.251Z,15.70
2017-12-29T01:58:41.267Z,17.40
2017-12-29T01:59:41.272Z,14.00
2017-12-29T02:00:41.282Z,13.30
2017-12-29T02:01:41.295Z,15.00
2017-12-29T02:02:41.305Z,13.90
2017-12-29T02:03:41.314Z,15.00
2017-12-29T02:04:41.340Z,19.40
2017-12-29T02:05:41.340Z,12.00
2017-12-29T02:06:41.352Z,15.60
2017-12-29T02:07:41.360Z,13.70
2017-12-29T02:08:41.369Z,16.90
2017-12-29T02:09:41.378Z,14.90
2017-12-29T02:10:41.393Z,13.20
2017-12-29T02:11:41.401Z,14.70
2017-12-29T02:12:41.415Z,14.50
2017-12-29T02:13:41.423Z,15.50
2017-12-29T02:14:41.437Z,16.10
2017-12-29T02:15:41.446Z,15.30
2017-12-29T02:16:41.453Z,17.00
2017-12-29T02:17:41.463Z,12.10
2017-12-29T02:18:41.474Z,16.70
2017-12-29T02:19:41.487Z,18.00
2017-12-29T02:20:41.510Z,15.90
2017-12-29T02:21:41.507Z,15.30
2017-12-29T02:22:41.518Z,13.50
2017-12-29T02:23:41.530Z,16.70
2017-12-29T02:24:41.542Z,17.90
2017-12-29T02:25:41.550Z,19.10
2017-12-29T02:26:41.561Z,13.10
2017-12-29T02:27:41.572Z,14.80
2017-12-29T02:28:41.583Z,15.30
2017-12-29T02:29:41.592Z,14.10
2017-12-29T02:30:41.602Z,15.10
2017-12-29T02:31:41.614Z,15.90
2017-12-29T02:32:41.625Z,12.70
2017-12-29T02:33:41.639Z,15.00
2017-12-29T02:34:41.645Z,15.40
2017-12-29T02:35:41.657Z,12.40
2017-12-29T02:36:41.666Z,17.60
2017-12-29T02:37:41.676Z,13.00
2017-12-29T02:38:41.688Z,15.80
2017-12-29T02:39:41.696Z,13.80
2017-12-29T02:40:41.708Z,14.00
2017-12-29T02:41:41.718Z,15.40
2017-12-29T02:42:41.728Z,14.60
2017-12-29T02:43:41.738Z,16.10
2017-12-29T02:44:41.749Z,13.80
2017-12-29T02:45:41.765Z,12.60
2017-12-29T02:46:41.770Z,13.30
2017-12-29T02:47:41.781Z,18.10
2017-12-29T02:48:41.792Z,15.90
2017-12-29T02:49:41.803Z,12.80
2017-12-29T02:50:41.813Z,13.10
2017-12-29T02:51:41.823Z,13.70
2017-12-29T02:52:41.833Z,15.80
2017-12-29T02:53:41.845Z,16.30
2017-12-29T02:54:41.862Z,15.30
2017-12-29T02:55:41.866Z,14.30
2017-12-29T02:56:41.875Z,14.30
2017-12-29T02:57:41.884Z,13.10
2017-12-29T02:58:41.894Z,13.30
2017-12-29T02:59:41.905Z,16.20
2017-12-29T03:00:41.916Z,12.80
2017-12-29T03:01:41.928Z,13.80
2017-12-29T03:02:41.938Z,14.80
2017-12-29T03:03:41.947Z,17.50
2017-12-29T03:04:41.958Z,16.50
2017-12-29T03:05:41.969Z,13.50
2017-12-29T03:06:41.978Z,15.90
2017-12-29T03:07:41.988Z,15.60
2017-12-29T03:08:41.999Z,16.70
2017-12-29T03:09:42.009Z,16.00
2017-12-29T03:10:42.020Z,17.30
2017-12-29T03:11:42.031Z,14.70
2017-12-29T03:12:42.040Z,14.90
2017-12-29T03:13:42.050Z,13.60
2017-12-29T03:14:42.063Z,16.10
2017-12-29T03:15:42.072Z,14.40
2017-12-29T03:16:42.082Z,18.90
2017-12-29T03:17:42.091Z,17.20
2017-12-29T03:18:42.104Z,17.40
2017-12-29T03:19:42.112Z,14.50
2017-12-29T03:20:42.124Z,18.60
2017-12-29T03:21:42.131Z,15.10
2017-12-29T03:22:42.142Z,16.20
2017-12-29T03:23:42.153Z,14.30
2017-12-29T03:24:42.163Z,14.70
2017-12-29T03:25:42.176Z,17.20
2017-12-29T03:26:42.185Z,14.60
2017-12-29T03:27:42.196Z,16.70
2017-12-29T03:28:42.205Z,16.80
2017-12-29T03:29:42.221Z,17.30
2017-12-29T03:30:42.226Z,14.90
2017-12-29T03:31:42.236Z,13.40
2017-12-29T03:32:42.246Z,15.90
2017-12-29T03:33:42.256Z,13.60
2017-12-29T03:34:42.268Z,17.50
2017-12-29T03:35:42.280Z,13.40
2017-12-29T03:36:42.289Z,14.10
2017-12-29T03:37:42.301Z,17.60
2017-12-29T03:38:42.313Z,14.40
2017-12-29T03:39:42.318Z,17.60
2017-12-29T03:40:42.329Z,15.60
2017-12-29T03:41:42.339Z,17.20
2017-12-29T03:42:42.348Z,17.20
2017-12-29T03:43:42.360Z,16.20
2017-12-29T03:44:42.369Z,15.70
2017-12-29T03:45:42.382Z,16.40
2017-12-29T03:46:42.389Z,15.10
2017-12-29T03:47:42.401Z,17.40
2017-12-29T03:48:42.410Z,13.90
2017-12-29T03:49:42.420Z,15.60
2017-12-29T03:50:42.431Z,16.90
2017-12-29T03:51:42.441Z,18.50
2017-12-29T03:52:42.452Z,16.30
2017-12-29T03:53:42.462Z,21.00
2017-12-29T03:54:42.471Z,15.60
2017-12-29T03:55:42.483Z,16.70
2017-12-29T03:56:42.494Z,15.10
2017-12-29T03:57:42.502Z,20.20
2017-12-29T03:58:42.512Z,15.40
2017-12-29T03:59:42.524Z,17.50
2017-12-29T04:00:42.541Z,17.60
2017-12-29T04:01:42.544Z,14.00
2017-12-29T04:02:42.554Z,16.20
2017-12-29T04:03:42.566Z,14.80
2017-12-29T04:04:42.576Z,12.50
2017-12-29T04:05:42.584Z,15.20
2017-12-29T04:06:42.594Z,15.80
2017-12-29T04:07:42.611Z,16.40
2017-12-29T04:08:42.614Z,16.30
2017-12-29T04:09:42.625Z,14.10
2017-12-29T04:10:42.640Z,15.00
2017-12-29T04:11:42.647Z,14.90
2017-12-29T04:12:42.656Z,15.20
2017-12-29T04:13:42.668Z,13.20
2017-12-29T04:14:42.691Z,14.60
2017-12-29T04:15:42.686Z,18.60
2017-12-29T04:16:42.697Z,18.70
2017-12-29T04:17:42.709Z,15.20
2017-12-29T04:18:42.716Z,17.10
2017-12-29T04:19:42.727Z,14.70
2017-12-29T04:20:42.739Z,15.40
2017-12-29T04:21:42.748Z,16.10
2017-12-29T04:22:42.758Z,13.80
2017-12-29T04:23:42.769Z,18.00
2017-12-29T04:24:42.779Z,17.80
2017-12-29T04:25:42.790Z,13.60
2017-12-29T04:26:42.803Z,17.60
2017-12-29T04:27:42.810Z,13.80
2017-12-29T04:28:42.821Z,18.20
2017-12-29T04:29:42.835Z,15.60
2017-12-29T04:30:42.842Z,17.50
2017-12-29T04:31:42.852Z,14.50
2017-12-29T04:32:42.861Z,16.50
2017-12-29T04:33:42.872Z,18.20
2017-12-29T04:34:42.882Z,17.30
2017-12-29T04:35:42.892Z,16.60
2017-12-29T04:36:42.902Z,16.10
2017-12-29T04:37:42.912Z,14.90
2017-12-29T04:38:42.922Z,14.60
2017-12-29T04:39:42.934Z,19.50
2017-12-29T04:40:42.944Z,12.80
2017-12-29T04:41:42.953Z,16.80
2017-12-29T04:42:42.974Z,17.30
2017-12-29T04:43:42.976Z,15.00
2017-12-29T04:44:42.985Z,14.90
2017-12-29T04:45:42.994Z,17.30
2017-12-29T04:46:43.104Z,14.10
2017-12-29T04:47:43.016Z,14.50
2017-12-29T04:48:43.026Z,18.80
2017-12-29T04:49:43.036Z,17.40
2017-12-29T04:50:43.047Z,13.90
2017-12-29T04:51:43.057Z,18.70
2017-12-29T04:52:43.066Z,16.00
2017-12-29T04:53:43.079Z,15.40
2017-12-29T04:54:43.088Z,19.00
2017-12-29T04:55:43.102Z,14.20
2017-12-29T04:56:43.112Z,15.70
2017-12-29T04:57:43.122Z,17.20
2017-12-29T04:58:43.130Z,17.70
2017-12-29T04:59:43.138Z,14.00
2017-12-29T05:00:43.148Z,15.90
2017-12-29T05:01:43.159Z,17.00
2017-12-29T05:02:43.171Z,17.40
2017-12-29T05:03:43.180Z,15.00
2017-12-29T05:04:43.191Z,13.90
2017-12-29T05:05:43.199Z,14.20
2017-12-29T05:06:43.210Z,16.00
2017-12-29T05:07:43.223Z,15.40
2017-12-29T05:08:43.232Z,19.00
2017-12-29T05:09:43.242Z,18.60
2017-12-29T05:10:43.252Z,14.40
2017-12-29T05:11:43.276Z,13.40
2017-12-29T05:12:43.273Z,16.40
2017-12-29T05:13:43.281Z,16.30
2017-12-29T05:14:43.291Z,19.70
2017-12-29T05:15:43.304Z,17.90
2017-12-29T05:16:43.316Z,15.30
2017-12-29T05:17:43.528Z,15.40
2017-12-29T05:18:43.335Z,13.40
2017-12-29T05:19:43.346Z,17.70
2017-12-29T05:20:43.355Z,15.00
2017-12-29T05:21:43.367Z,20.00
2017-12-29T05:22:43.377Z,15.60
2017-12-29T05:23:43.387Z,17.30
2017-12-29T05:24:43.398Z,16.80
2017-12-29T05:25:43.407Z,19.50
2017-12-29T05:26:43.425Z,16.70
2017-12-29T05:27:43.427Z,19.00
2017-12-29T05:28:43.441Z,17.30
2017-12-29T05:29:43.449Z,15.90
2017-12-29T05:30:43.457Z,16.80
2017-12-29T05:31:43.467Z,16.10
2017-12-29T05:32:43.477Z,18.30
2017-12-29T05:33:43.487Z,19.00
2017-12-29T05:34:43.500Z,20.70
2017-12-29T05:35:43.507Z,16.70
2017-12-29T05:36:43.525Z,17.30
2017-12-29T05:37:43.628Z,18.00
2017-12-29T05:38:43.538Z,16.10
2017-12-29T05:39:43.547Z,15.60
2017-12-29T05:40:43.559Z,17.10
2017-12-29T05:41:43.569Z,19.10
2017-12-29T05:42:43.580Z,17.30
2017-12-29T05:43:43.592Z,18.60
2017-12-29T05:44:43.598Z,17.90
2017-12-29T05:45:43.610Z,18.70
2017-12-29T05:46:43.619Z,20.80
2017-12-29T05:47:43.644Z,16.30
2017-12-29T05:48:43.640Z,16.80
2017-12-29T05:49:43.648Z,16.70
2017-12-29T05:50:43.660Z,22.70
2017-12-29T05:51:43.672Z,14.80
2017-12-29T05:52:43.681Z,17.40
2017-12-29T05:53:43.690Z,17.70
2017-12-29T05:54:43.698Z,17.60
2017-12-29T05:55:43.710Z,16.60
2017-12-29T05:56:43.719Z,16.90
2017-12-29T05:57:43.730Z,18.10
2017-12-29T05:58:43.746Z,16.20
2017-12-29T05:59:43.751Z,16.50
2017-12-29T06:00:43.760Z,16.70
2017-12-29T06:01:43.770Z,17.40
2017-12-29T06:02:43.780Z,22.00
2017-12-29T06:03:43.789Z,13.90
2017-12-29T06:04:43.798Z,17.30
2017-12-29T06:05:43.813Z,15.70
2017-12-29T06:06:43.820Z,15.80
2017-12-29T06:07:43.831Z,15.40
2017-12-29T06:08:43.840Z,18.10
2017-12-29T06:09:43.849Z,16.80
2017-12-29T06:10:43.861Z,18.00
2017-12-29T06:11:43.917Z,14.50
2017-12-29T06:12:43.887Z,16.00
2017-12-29T06:13:43.889Z,16.30
2017-12-29T06:14:43.912Z,15.70
2017-12-29T06:15:43.909Z,17.30
2017-12-29T06:16:43.920Z,15.70
2017-12-29T06:17:43.934Z,14.10
2017-12-29T06:18:43.940Z,17.80
2017-12-29T06:19:43.968Z,15.90
2017-12-29T06:20:43.962Z,17.40
2017-12-29T06:21:43.971Z,14.50
2017-12-29T06:22:43.984Z,21.30
2017-12-29T06:23:43.989Z,15.30
2017-12-29T06:24:44.001Z,19.10
2017-12-29T06:25:44.015Z,13.60
2017-12-29T06:26:44.019Z,15.90
2017-12-29T06:28:44.040Z,17.90
2017-12-29T06:29:44.049Z,14.10
2017-12-29T06:30:44.059Z,17.20
2017-12-29T06:31:44.071Z,14.20
2017-12-29T06:32:44.581Z,17.20
2017-12-29T06:33:44.092Z,15.70
2017-12-29T06:34:44.100Z,15.80
2017-12-29T06:35:44.111Z,17.60
2017-12-29T06:36:44.120Z,12.90
2017-12-29T06:37:44.133Z,16.10
2017-12-29T06:38:44.141Z,15.50
2017-12-29T06:39:44.162Z,14.40
2017-12-29T06:40:44.159Z,17.40
2017-12-29T06:41:44.183Z,15.10
2017-12-29T06:42:44.180Z,15.50
2017-12-29T06:43:44.195Z,16.10
2017-12-29T06:44:44.203Z,15.80
2017-12-29T06:45:44.211Z,19.60
2017-12-29T06:46:44.222Z,15.50
2017-12-29T06:47:44.232Z,16.50
2017-12-29T06:48:44.239Z,17.80
2017-12-29T06:49:44.249Z,15.80
2017-12-29T06:50:44.259Z,17.10
2017-12-29T06:51:44.275Z,17.20
2017-12-29T06:52:44.278Z,14.60
2017-12-29T06:53:44.308Z,18.00
2017-12-29T06:54:44.306Z,15.30
2017-12-29T06:55:44.309Z,15.50
2017-12-29T06:56:44.318Z,16.10
2017-12-29T06:57:44.336Z,16.20
2017-12-29T06:58:46.254Z,15.70
2017-12-29T06:59:44.363Z,18.10
2017-12-29T07:00:44.358Z,15.70
2017-12-29T07:01:44.441Z,17.30
2017-12-29T07:02:44.388Z,16.70
2017-12-29T07:03:44.391Z,14.90
2017-12-29T07:04:44.404Z,13.30
2017-12-29T07:05:44.411Z,15.10
2017-12-29T07:06:44.421Z,14.50
2017-12-29T07:07:44.429Z,16.30
2017-12-29T07:08:44.438Z,17.70
2017-12-29T07:09:44.446Z,16.10
2017-12-29T07:10:44.468Z,17.30
2017-12-29T07:11:44.472Z,13.70
2017-12-29T07:12:44.477Z,13.50
2017-12-29T07:13:44.487Z,15.40
2017-12-29T07:14:44.498Z,16.10
2017-12-29T07:15:44.507Z,16.70
2017-12-29T07:16:44.523Z,13.70
2017-12-29T07:17:44.529Z,14.40
2017-12-29T07:18:44.538Z,12.90
2017-12-29T07:19:44.547Z,17.30
2017-12-29T07:20:44.558Z,12.80
2017-12-29T07:21:44.570Z,15.40
2017-12-29T07:22:44.575Z,16.40
2017-12-29T07:23:44.586Z,14.50
2017-12-29T07:24:44.598Z,15.70
2017-12-29T07:25:44.604Z,15.80
2017-12-29T07:26:44.616Z,14.80
2017-12-29T07:27:44.633Z,15.60
2017-12-29T07:28:44.635Z,15.00
2017-12-29T07:29:44.646Z,12.80
2017-12-29T07:30:44.656Z,14.30
2017-12-29T07:31:44.665Z,16.80
2017-12-29T07:32:44.683Z,15.30
2017-12-29T07:33:44.687Z,15.10
2017-12-29T07:34:44.698Z,18.30
2017-12-29T07:35:48.932Z,15.20
2017-12-29T07:36:45.941Z,11.80
2017-12-29T07:37:44.725Z,14.10
2017-12-29T07:38:46.094Z,16.00
2017-12-29T07:39:44.744Z,17.10
2017-12-29T07:40:44.757Z,16.50
2017-12-29T07:41:44.765Z,15.10
2017-12-29T07:42:44.774Z,15.20
2017-12-29T07:43:44.788Z,16.90
2017-12-29T07:44:44.804Z,12.60
2017-12-29T07:45:44.802Z,14.70
2017-12-29T07:46:44.944Z,15.10
2017-12-29T07:47:44.825Z,17.80
2017-12-29T07:48:44.832Z,13.90
2017-12-29T07:49:44.851Z,12.10
2017-12-29T07:50:44.853Z,13.80
2017-12-29T07:51:44.865Z,14.10
2017-12-29T07:52:44.873Z,12.30
2017-12-29T07:53:44.883Z,12.50
2017-12-29T07:54:44.892Z,13.10
2017-12-29T07:55:44.904Z,14.30
2017-12-29T07:56:44.917Z,15.50
2017-12-29T07:57:44.928Z,15.50
2017-12-29T07:58:44.932Z,14.00
2017-12-29T08:00:44.955Z,13.50
2017-12-29T08:01:44.963Z,15.40
2017-12-29T08:02:44.972Z,11.20
2017-12-29T08:03:44.983Z,12.70
2017-12-29T08:04:44.994Z,14.60
2017-12-29T08:05:45.003Z,15.30
2017-12-29T08:06:45.014Z,13.50
2017-12-29T08:07:45.071Z,12.90
2017-12-29T08:08:45.033Z,12.90
2017-12-29T08:09:45.044Z,12.40
2017-12-29T08:10:45.057Z,11.30
2017-12-29T08:11:45.067Z,10.60
2017-12-29T08:12:45.078Z,13.20
2017-12-29T08:13:45.100Z,11.10
2017-12-29T08:14:45.099Z,12.70
2017-12-29T08:15:45.106Z,15.10
2017-12-29T08:16:45.117Z,14.30
2017-12-29T08:17:45.128Z,14.90
2017-12-29T08:18:45.138Z,12.00
2017-12-29T08:19:45.161Z,12.80
2017-12-29T08:20:45.155Z,13.90
2017-12-29T08:21:45.168Z,14.00
2017-12-29T08:22:45.190Z,10.10
2017-12-29T08:23:45.192Z,13.10
2017-12-29T08:24:45.197Z,11.30
2017-12-29T08:25:45.232Z,12.10
2017-12-29T08:26:45.218Z,12.50
2017-12-29T08:27:45.229Z,13.10
2017-12-29T08:28:45.242Z,10.50
2017-12-29T08:29:45.248Z,11.60
2017-12-29T08:30:45.260Z,12.50
2017-12-29T08:31:45.275Z,10.20
2017-12-29T08:32:45.276Z,10.30
2017-12-29T08:33:45.287Z,15.00
2017-12-29T08:34:45.302Z,11.80
2017-12-29T08:35:45.306Z,12.20
2017-12-29T08:36:45.344Z,9.60
2017-12-29T08:37:45.329Z,9.90
2017-12-29T08:38:45.339Z,10.40
2017-12-29T08:39:45.350Z,11.80
2017-12-29T08:40:45.359Z,11.70
2017-12-29T08:41:45.366Z,10.50
2017-12-29T08:42:45.382Z,8.80
2017-12-29T08:43:45.390Z,13.20
2017-12-29T08:44:45.405Z,11.10
2017-12-29T08:45:45.409Z,13.80
2017-12-29T08:46:45.424Z,13.10
2017-12-29T08:47:45.429Z,10.90
2017-12-29T08:48:45.441Z,14.00
2017-12-29T08:49:45.455Z,11.50
2017-12-29T08:50:45.460Z,12.10
2017-12-29T08:51:45.471Z,9.20
2017-12-29T08:52:45.484Z,12.50
2017-12-29T08:53:45.491Z,12.50
2017-12-29T08:54:45.500Z,9.80
2017-12-29T08:55:45.512Z,10.40
2017-12-29T08:56:45.723Z,11.00
2017-12-29T08:57:45.532Z,10.50
2017-12-29T08:58:45.542Z,9.40
2017-12-29T08:59:45.553Z,10.60
2017-12-29T09:00:45.563Z,8.20
2017-12-29T09:01:45.572Z,10.50
2017-12-29T09:02:45.582Z,9.60
2017-12-29T09:03:45.617Z,11.30
2017-12-29T09:04:45.605Z,12.40
2017-12-29T09:05:45.615Z,12.20
2017-12-29T09:06:45.625Z,9.30
2017-12-29T09:07:45.635Z,11.80
2017-12-29T09:08:46.046Z,10.30
2017-12-29T09:09:45.661Z,10.30
2017-12-29T09:10:45.665Z,10.10
2017-12-29T09:11:45.676Z,12.40
2017-12-29T09:12:45.687Z,12.90
2017-12-29T09:13:45.696Z,12.00
2017-12-29T09:14:45.708Z,10.10
2017-12-29T09:15:45.718Z,9.30
2017-12-29T09:16:45.930Z,9.70
2017-12-29T09:17:45.749Z,10.80
2017-12-29T09:18:46.739Z,10.50
2017-12-29T09:19:46.677Z,12.00
2017-12-29T09:20:45.996Z,9.00
2017-12-29T09:21:45.780Z,10.00
2017-12-29T09:22:45.790Z,10.10
2017-12-29T09:23:46.004Z,11.60
2017-12-29T09:24:45.812Z,8.40
2017-12-29T09:25:45.822Z,8.20
2017-12-29T09:26:46.043Z,10.40
2017-12-29T09:27:45.963Z,10.20
2017-12-29T09:28:46.072Z,11.20
2017-12-29T09:29:45.865Z,8.70
2017-12-29T09:30:45.877Z,9.50
2017-12-29T09:31:45.887Z,8.10
2017-12-29T09:32:46.268Z,10.90
2017-12-29T09:33:45.906Z,8.00
2017-12-29T09:35:45.926Z,10.10
2017-12-29T09:36:45.972Z,11.30
2017-12-29T09:37:45.948Z,7.80
2017-12-29T09:39:45.970Z,10.90
2017-12-29T09:40:45.982Z,9.20
2017-12-29T09:41:45.994Z,9.10
2017-12-29T09:42:46.007Z,9.50
2017-12-29T09:43:46.226Z,10.10
2017-12-29T09:44:46.020Z,7.30
2017-12-29T09:45:46.030Z,9.70
2017-12-29T09:46:46.059Z,9.60
2017-12-29T09:47:46.052Z,8.70
2017-12-29T09:48:46.057Z,10.70
2017-12-29T09:49:46.066Z,8.40
2017-12-29T09:50:46.077Z,7.80
2017-12-29T09:51:46.087Z,10.00
2017-12-29T09:52:46.101Z,8.20
2017-12-29T09:53:46.108Z,6.00
2017-12-29T09:54:46.117Z,9.10
2017-12-29T09:55:46.131Z,9.00
2017-12-29T09:56:46.144Z,8.50
2017-12-29T09:57:46.150Z,6.10
2017-12-29T09:58:46.160Z,6.80
2017-12-29T09:59:46.173Z,7.00
2017-12-29T10:00:46.186Z,7.20
2017-12-29T10:01:46.247Z,7.60
2017-12-29T10:02:46.203Z,7.60
2017-12-29T10:03:46.214Z,8.20
2017-12-29T10:04:46.225Z,7.50
2017-12-29T10:05:46.234Z,12.70
2017-12-29T10:06:46.246Z,7.40
2017-12-29T10:07:46.256Z,8.70
2017-12-29T10:08:46.267Z,6.00
2017-12-29T10:09:46.277Z,7.90
2017-12-29T10:10:46.291Z,6.80
2017-12-29T10:11:46.302Z,7.50
2017-12-29T10:12:46.309Z,8.10
2017-12-29T10:13:46.320Z,8.60
2017-12-29T10:14:46.333Z,9.50
2017-12-29T10:15:46.342Z,8.90
2017-12-29T10:16:46.354Z,8.30
2017-12-29T10:17:46.363Z,8.10
2017-12-29T10:18:46.378Z,8.20
2017-12-29T10:19:46.388Z,8.80
2017-12-29T10:20:46.396Z,9.50
2017-12-29T10:21:46.407Z,7.40
2017-12-29T10:22:46.416Z,7.70
2017-12-29T10:23:46.427Z,7.30
2017-12-29T10:24:46.439Z,7.30
2017-12-29T10:25:46.449Z,8.00
2017-12-29T10:26:46.465Z,7.00
2017-12-29T10:27:46.471Z,8.10
2017-12-29T10:28:46.487Z,8.10
2017-12-29T10:29:46.505Z,8.60
2017-12-29T10:30:46.504Z,7.30
2017-12-29T10:31:49.447Z,9.60
2017-12-29T10:32:46.526Z,7.80
2017-12-29T10:33:46.536Z,7.10
2017-12-29T10:35:46.665Z,7.60
2017-12-29T10:36:46.572Z,6.90
2017-12-29T10:37:46.580Z,9.60
2017-12-29T10:38:46.593Z,8.30
2017-12-29T10:39:46.603Z,6.50
2017-12-29T10:40:46.613Z,7.20
2017-12-29T10:41:46.624Z,9.60
2017-12-29T10:42:46.640Z,6.50
2017-12-29T10:43:46.646Z,8.00
2017-12-29T10:44:46.720Z,7.90
2017-12-29T10:45:46.668Z,7.70
2017-12-29T10:46:46.679Z,6.70
2017-12-29T10:47:46.691Z,6.40
2017-12-29T10:48:46.726Z,7.80
2017-12-29T10:49:46.713Z,10.10
2017-12-29T10:50:46.725Z,7.10
2017-12-29T10:51:46.735Z,8.20
2017-12-29T10:52:46.837Z,9.40
2017-12-29T10:53:46.757Z,5.50
2017-12-29T10:54:46.772Z,8.60
2017-12-29T10:55:46.781Z,6.70
2017-12-29T10:56:46.797Z,7.60
2017-12-29T10:57:46.802Z,9.30
2017-12-29T10:58:46.813Z,9.10
2017-12-29T10:59:46.825Z,7.00
2017-12-29T11:00:46.838Z,6.90
2017-12-29T11:01:46.848Z,9.30
2017-12-29T11:02:46.859Z,7.40
2017-12-29T11:03:46.870Z,6.80
2017-12-29T11:04:46.882Z,9.30
2017-12-29T11:05:46.893Z,9.60
2017-12-29T11:06:46.924Z,8.00
2017-12-29T11:07:46.918Z,6.30
2017-12-29T11:08:46.928Z,6.10
2017-12-29T11:09:46.944Z,7.20
2017-12-29T11:10:46.951Z,5.40
2017-12-29T11:11:46.963Z,5.90
2017-12-29T11:12:46.979Z,7.90
2017-12-29T11:13:46.984Z,7.30
2017-12-29T11:14:46.995Z,9.60
2017-12-29T11:15:47.446Z,5.60
2017-12-29T11:16:47.020Z,6.90
2017-12-29T11:17:47.031Z,6.00
2017-12-29T11:18:47.045Z,7.00
2017-12-29T11:19:47.059Z,7.10
2017-12-29T11:20:47.065Z,7.00
2017-12-29T11:21:47.084Z,6.40
2017-12-29T11:22:47.090Z,7.30
2017-12-29T11:23:47.200Z,9.30
2017-12-29T11:24:47.112Z,10.30
2017-12-29T11:25:47.122Z,8.70
2017-12-29T11:26:47.133Z,8.10
2017-12-29T11:27:47.145Z,5.90
2017-12-29T11:28:47.163Z,6.30
2017-12-29T11:29:47.172Z,7.80
2017-12-29T11:30:47.180Z,5.50
2017-12-29T11:31:47.203Z,5.50
2017-12-29T11:32:47.204Z,8.30
2017-12-29T11:33:47.215Z,6.90
2017-12-29T11:34:47.227Z,7.10
2017-12-29T11:35:47.238Z,5.70
2017-12-29T11:36:47.250Z,7.40
2017-12-29T11:37:47.262Z,6.10
2017-12-29T11:38:47.309Z,6.40
2017-12-29T11:39:47.285Z,7.00
2017-12-29T11:40:47.295Z,6.00
2017-12-29T11:41:47.309Z,5.80
2017-12-29T11:42:47.319Z,6.50
2017-12-29T11:43:47.344Z,6.30
2017-12-29T11:44:47.349Z,5.90
2017-12-29T11:45:47.354Z,6.60
2017-12-29T11:46:47.366Z,5.40
2017-12-29T11:47:47.379Z,6.30
2017-12-29T11:48:47.390Z,7.20
2017-12-29T11:49:47.401Z,5.40
2017-12-29T11:50:47.415Z,7.90
2017-12-29T11:51:47.426Z,7.10
2017-12-29T11:52:47.443Z,6.00
2017-12-29T11:53:47.447Z,7.90
2017-12-29T11:54:47.460Z,7.00
2017-12-29T11:55:47.472Z,9.60
2017-12-29T11:56:47.483Z,6.50
2017-12-29T11:57:47.494Z,6.70
2017-12-29T11:58:47.506Z,5.70
2017-12-29T11:59:47.519Z,6.90
2017-12-29T12:00:47.530Z,7.30
2017-12-29T12:01:47.541Z,5.70
2017-12-29T12:02:47.554Z,6.90
2017-12-29T12:03:47.569Z,7.40
2017-12-29T12:04:47.579Z,6.20
2017-12-29T12:05:47.589Z,7.00
2017-12-29T12:06:47.600Z,5.80
2017-12-29T12:07:47.612Z,6.10
2017-12-29T12:08:47.625Z,8.20
2017-12-29T12:09:47.649Z,7.60
2017-12-29T12:10:47.988Z,6.40
2017-12-29T12:11:47.659Z,6.60
2017-12-29T12:12:47.972Z,8.80
2017-12-29T12:13:47.684Z,5.30
2017-12-29T12:14:47.695Z,5.20
2017-12-29T12:15:47.708Z,5.60
2017-12-29T12:16:47.719Z,6.50
2017-12-29T12:17:47.730Z,5.90
2017-12-29T12:18:47.751Z,6.70
2017-12-29T12:19:47.755Z,6.20
2017-12-29T12:20:47.769Z,5.80
2017-12-29T12:21:47.781Z,5.20
2017-12-29T12:22:47.799Z,6.00
2017-12-29T12:23:47.803Z,6.50
2017-12-29T12:24:47.834Z,6.50
2017-12-29T12:25:47.825Z,6.60
2017-12-29T12:26:47.901Z,7.10
2017-12-29T12:27:47.849Z,5.80
2017-12-29T12:28:47.862Z,6.10
2017-12-29T12:29:47.871Z,6.00
2017-12-29T12:30:47.885Z,7.60
2017-12-29T12:31:47.900Z,6.00
2017-12-29T12:32:47.913Z,6.70
2017-12-29T12:33:47.921Z,6.70
2017-12-29T12:34:47.937Z,6.60
2017-12-29T12:35:47.944Z,7.40
2017-12-29T12:36:49.499Z,8.20
2017-12-29T12:37:47.971Z,7.90
2017-12-29T12:38:47.983Z,6.90
2017-12-29T12:39:47.996Z,7.30
2017-12-29T12:40:48.208Z,6.80
2017-12-29T12:41:48.019Z,5.90
2017-12-29T12:42:48.030Z,7.30
2017-12-29T12:43:48.041Z,7.30
2017-12-29T12:44:48.054Z,6.40
2017-12-29T12:45:48.065Z,8.10
2017-12-29T12:46:48.077Z,5.40
2017-12-29T12:47:48.094Z,6.10
2017-12-29T12:48:48.101Z,5.80
2017-12-29T12:49:48.113Z,5.70
2017-12-29T12:50:48.125Z,5.20
2017-12-29T12:51:48.147Z,6.70
2017-12-29T12:52:48.149Z,6.70
2017-12-29T12:53:48.161Z,6.10
2017-12-29T12:54:48.174Z,6.30
2017-12-29T12:55:48.184Z,6.00
2017-12-29T12:56:48.195Z,5.50
2017-12-29T12:57:48.206Z,6.00
2017-12-29T12:58:48.218Z,6.90
2017-12-29T12:59:48.231Z,5.90
2017-12-29T13:00:48.246Z,5.30
2017-12-29T13:01:48.258Z,6.50
2017-12-29T13:02:48.272Z,8.30
2017-12-29T13:03:48.281Z,6.80
2017-12-29T13:04:48.290Z,5.10